createdAt,value
2023-02-14T00:00:31.201Z,0.73
2023-02-14T00:02:58.404Z,0.80
2023-02-14T00:05:25.760Z,0.90
2023-02-14T00:07:52.445Z,0.70
2023-02-14T00:10:19.194Z,2.58
2023-02-14T00:12:46.710Z,1.00
2023-02-14T00:15:22.327Z,0.70
2023-02-14T00:17:50.160Z,0.50
2023-02-14T00:20:17.093Z,0.60
2023-02-14T00:22:43.893Z,0.60
2023-02-14T00:25:10.749Z,0.40
2023-02-14T00:27:37.983Z,0.52
2023-02-14T00:30:06.940Z,0.50
2023-02-14T00:32:33.717Z,0.50
2023-02-14T00:35:00.556Z,0.60
2023-02-14T00:37:27.196Z,0.60
2023-02-14T00:39:54.166Z,0.43
2023-02-14T00:42:20.820Z,0.50
2023-02-14T00:44:47.944Z,0.60
2023-02-14T00:47:14.663Z,0.50
2023-02-14T00:49:41.328Z,0.40
2023-02-14T00:52:08.057Z,0.50
2023-02-14T00:54:34.792Z,0.47
2023-02-14T00:57:01.464Z,0.60
2023-02-14T00:59:28.155Z,0.50
2023-02-14T01:01:54.918Z,0.43
2023-02-14T01:04:21.593Z,0.55
2023-02-14T01:06:48.290Z,0.70
2023-02-14T01:09:14.938Z,0.88
2023-02-14T01:11:41.708Z,0.93
2023-02-14T01:14:08.424Z,0.75
2023-02-14T01:16:36.629Z,0.70
2023-02-14T01:19:03.377Z,0.95
2023-02-14T01:21:32.634Z,1.33
2023-02-14T01:24:02.175Z,1.30
2023-02-14T01:26:29.654Z,1.50
2023-02-14T01:28:56.953Z,1.48
2023-02-14T01:31:27.496Z,1.70
2023-02-14T01:33:54.545Z,1.60
2023-02-14T01:36:30.133Z,1.70
2023-02-14T01:38:59.197Z,1.50
2023-02-14T01:41:27.999Z,1.77
2023-02-14T01:43:58.007Z,1.77
2023-02-14T01:46:26.392Z,1.60
2023-02-14T01:48:55.790Z,1.95
2023-02-14T01:51:22.720Z,1.60
2023-02-14T01:53:49.999Z,1.77
2023-02-14T01:56:22.091Z,1.60
2023-02-14T01:58:49.941Z,1.80
2023-02-14T02:01:18.382Z,1.77
2023-02-14T02:03:49.568Z,1.40
2023-02-14T02:06:17.452Z,1.40
2023-02-14T02:09:00.713Z,1.50
2023-02-14T02:11:27.758Z,1.30
2023-02-14T02:13:54.397Z,1.20
2023-02-14T02:16:58.372Z,1.40
2023-02-14T02:19:46.190Z,1.20
2023-02-14T02:22:51.368Z,1.20
2023-02-14T02:25:41.746Z,1.27
2023-02-14T02:28:29.703Z,1.10
2023-02-14T02:31:20.363Z,1.08
2023-02-14T02:34:10.530Z,0.98
2023-02-14T02:37:14.810Z,1.40
2023-02-14T02:40:07.652Z,1.23
2023-02-14T02:43:11.312Z,1.10
2023-02-14T02:46:22.765Z,1.25
2023-02-14T02:48:58.436Z,1.58
2023-02-14T02:52:09.404Z,1.65
2023-02-14T02:54:42.717Z,1.80
2023-02-14T02:57:23.973Z,1.40
2023-02-14T02:59:52.479Z,1.70
2023-02-14T03:02:31.424Z,1.95
2023-02-14T03:05:00.249Z,2.25
2023-02-14T03:07:34.709Z,2.58
2023-02-14T03:10:23.621Z,2.50
2023-02-14T03:12:55.277Z,3.38
2023-02-14T03:15:29.650Z,2.83
2023-02-14T03:18:05.767Z,3.38
2023-02-14T03:20:49.895Z,3.08
2023-02-14T03:23:22.408Z,2.60
2023-02-14T03:26:01.640Z,3.15
2023-02-14T03:28:53.400Z,3.10
2023-02-14T03:31:55.663Z,3.17
2023-02-14T03:34:47.056Z,3.25
2023-02-14T03:37:34.997Z,3.47
2023-02-14T03:40:19.547Z,3.10
2023-02-14T03:42:53.233Z,3.08
2023-02-14T03:45:33.602Z,3.45
2023-02-14T03:48:04.406Z,3.88
2023-02-14T03:50:31.693Z,3.90
2023-02-14T03:52:59.476Z,4.22
2023-02-14T03:55:41.877Z,4.10
2023-02-14T03:58:19.752Z,4.28
2023-02-14T04:00:47.943Z,4.32
2023-02-14T04:03:17.197Z,4.63
2023-02-14T04:05:46.678Z,4.15
2023-02-14T04:08:21.637Z,4.35
2023-02-14T04:10:49.281Z,4.80
2023-02-14T04:13:15.987Z,4.43
2023-02-14T04:15:42.754Z,4.40
2023-02-14T04:18:28.467Z,4.45
2023-02-14T04:20:55.465Z,4.70
2023-02-14T04:23:22.104Z,4.45
2023-02-14T04:25:48.839Z,4.55
2023-02-14T04:28:15.560Z,4.30
2023-02-14T04:30:42.332Z,4.80
2023-02-14T04:33:10.586Z,4.93
2023-02-14T04:35:37.250Z,4.05
2023-02-14T04:38:04.646Z,4.30
2023-02-14T04:40:31.397Z,4.03
2023-02-14T04:42:58.101Z,4.10
2023-02-14T04:45:24.956Z,4.50
2023-02-14T04:47:51.806Z,4.63
2023-02-14T04:50:18.719Z,4.07
2023-02-14T04:52:45.418Z,4.47
2023-02-14T04:55:13.037Z,4.55
2023-02-14T04:57:39.731Z,3.83
2023-02-14T05:00:07.186Z,4.55
2023-02-14T05:02:34.022Z,4.20
2023-02-14T05:05:00.694Z,4.43
2023-02-14T05:07:28.460Z,4.20
2023-02-14T05:09:55.089Z,4.30
2023-02-14T05:12:21.781Z,3.92
2023-02-14T05:14:48.402Z,4.53
2023-02-14T05:17:15.032Z,4.20
2023-02-14T05:19:41.744Z,4.43
2023-02-14T05:22:08.400Z,4.22
2023-02-14T05:24:35.052Z,4.03
2023-02-14T05:27:01.805Z,4.50
2023-02-14T05:29:28.541Z,5.07
2023-02-14T05:31:55.219Z,5.07
2023-02-14T05:34:21.972Z,4.90
2023-02-14T05:36:48.675Z,5.03
2023-02-14T05:39:15.458Z,4.80
2023-02-14T05:41:42.265Z,4.93
2023-02-14T05:44:08.985Z,5.65
2023-02-14T05:46:35.649Z,4.95
2023-02-14T05:49:02.587Z,4.55
2023-02-14T05:51:29.226Z,5.63
2023-02-14T05:53:57.781Z,5.40
2023-02-14T05:56:24.515Z,5.38
2023-02-14T05:58:51.206Z,5.07
2023-02-14T06:01:17.873Z,5.40
2023-02-14T06:03:44.565Z,5.13
2023-02-14T06:06:11.289Z,4.82
2023-02-14T06:08:37.917Z,5.00
2023-02-14T06:11:04.832Z,5.40
2023-02-14T06:13:31.513Z,5.68
2023-02-14T06:15:58.222Z,5.22
2023-02-14T06:18:28.080Z,5.20
2023-02-14T06:20:55.574Z,5.70
2023-02-14T06:23:23.426Z,5.00
2023-02-14T06:25:50.065Z,5.63
2023-02-14T06:28:16.750Z,5.68
2023-02-14T06:30:43.545Z,4.68
2023-02-14T06:33:10.418Z,5.68
2023-02-14T06:35:37.204Z,5.70
2023-02-14T06:38:03.948Z,5.75
2023-02-14T06:40:30.612Z,5.07
2023-02-14T06:42:57.305Z,5.18
2023-02-14T06:45:23.988Z,5.82
2023-02-14T06:47:50.636Z,5.07
2023-02-14T06:50:17.341Z,5.38
2023-02-14T06:52:44.460Z,5.40
2023-02-14T06:55:13.735Z,5.68
2023-02-14T06:57:40.537Z,4.75
2023-02-14T07:00:07.747Z,4.82
2023-02-14T07:02:34.561Z,4.68
2023-02-14T07:05:01.292Z,4.13
2023-02-14T07:07:28.014Z,3.70
2023-02-14T07:09:54.618Z,3.40
2023-02-14T07:12:21.387Z,4.10
2023-02-14T07:14:48.020Z,3.70
2023-02-14T07:17:14.685Z,3.72
2023-02-14T07:19:41.336Z,3.80
2023-02-14T07:22:08.008Z,3.30
2023-02-14T07:24:34.637Z,4.00
2023-02-14T07:27:01.297Z,3.95
2023-02-14T07:29:27.963Z,3.15
2023-02-14T07:31:54.833Z,3.45
2023-02-14T07:34:21.566Z,3.15
2023-02-14T07:36:48.213Z,3.20
2023-02-14T07:39:14.865Z,2.78
2023-02-14T07:41:41.589Z,2.78
2023-02-14T07:44:08.334Z,3.38
2023-02-14T07:46:35.105Z,3.17
2023-02-14T07:49:01.820Z,3.53
2023-02-14T07:51:28.524Z,4.07
2023-02-14T07:53:55.141Z,3.60
2023-02-14T07:56:21.993Z,3.28
2023-02-14T07:58:49.705Z,4.47
2023-02-14T08:01:17.121Z,4.78
2023-02-14T08:03:45.915Z,4.03
2023-02-14T08:06:12.708Z,3.42
2023-02-14T08:08:39.384Z,3.50
2023-02-14T08:11:06.029Z,3.38
2023-02-14T08:13:32.842Z,4.10
2023-02-14T08:16:05.756Z,4.85
2023-02-14T08:18:37.796Z,4.45
2023-02-14T08:21:06.144Z,5.15
2023-02-14T08:23:32.975Z,4.88
2023-02-14T08:25:59.758Z,5.45
2023-02-14T08:28:27.088Z,5.78
2023-02-14T08:30:54.491Z,5.30
2023-02-14T08:33:21.808Z,4.95
2023-02-14T08:35:48.630Z,5.63
2023-02-14T08:38:15.520Z,5.40
2023-02-14T08:40:42.395Z,5.07
2023-02-14T08:43:09.551Z,5.55
2023-02-14T08:45:36.408Z,5.13
2023-02-14T08:48:10.254Z,5.18
2023-02-14T08:50:37.815Z,5.57
2023-02-14T08:53:09.207Z,5.68
2023-02-14T08:55:36.226Z,5.65
2023-02-14T08:58:03.650Z,5.88
2023-02-14T09:00:31.091Z,5.05
2023-02-14T09:02:57.972Z,5.60
2023-02-14T09:05:24.814Z,5.60
2023-02-14T09:07:52.077Z,5.60
2023-02-14T09:10:19.020Z,5.13
2023-02-14T09:12:45.728Z,5.45
2023-02-14T09:15:12.825Z,4.97
2023-02-14T09:17:39.586Z,4.65
2023-02-14T09:20:09.021Z,4.78
2023-02-14T09:22:35.676Z,5.40
2023-02-14T09:25:02.442Z,5.88
2023-02-14T09:27:29.182Z,5.85
2023-02-14T09:29:55.906Z,5.78
2023-02-14T09:32:22.919Z,5.68
2023-02-14T09:34:49.598Z,5.03
2023-02-14T09:37:16.293Z,5.35
2023-02-14T09:39:42.945Z,5.10
2023-02-14T09:42:22.963Z,5.20
2023-02-14T09:44:57.988Z,5.53
2023-02-14T09:47:41.776Z,5.43
2023-02-14T09:50:22.929Z,5.43
2023-02-14T09:52:52.656Z,5.78
2023-02-14T09:55:19.453Z,5.50
2023-02-14T09:58:03.882Z,6.07
2023-02-14T10:00:42.596Z,5.47
2023-02-14T10:03:37.571Z,6.25
2023-02-14T10:06:18.112Z,6.25
2023-02-14T10:09:22.800Z,5.97
2023-02-14T10:11:50.516Z,5.78
2023-02-14T10:14:33.879Z,6.53
2023-02-14T10:17:14.567Z,6.40
2023-02-14T10:19:43.530Z,5.80
2023-02-14T10:22:14.872Z,6.50
2023-02-14T10:24:47.972Z,6.50
2023-02-14T10:27:30.125Z,5.85
2023-02-14T10:29:56.845Z,5.93
2023-02-14T10:32:30.931Z,6.47
2023-02-14T10:35:01.012Z,6.50
2023-02-14T10:37:45.983Z,6.40
2023-02-14T10:40:45.708Z,5.72
2023-02-14T10:43:49.335Z,5.65
2023-02-14T10:46:48.077Z,5.88
2023-02-14T10:49:52.111Z,5.40
2023-02-14T10:52:24.321Z,5.03
2023-02-14T10:54:55.278Z,5.43
2023-02-14T10:57:41.145Z,5.43
2023-02-14T11:00:17.342Z,5.65
2023-02-14T11:02:46.238Z,5.75
2023-02-14T11:05:31.495Z,5.88
2023-02-14T11:08:02.168Z,6.68
2023-02-14T11:10:32.145Z,6.22
2023-02-14T11:12:59.229Z,6.28
2023-02-14T11:15:33.716Z,7.28
2023-02-14T11:18:17.738Z,8.60
2023-02-14T11:20:44.594Z,8.40
2023-02-14T11:23:21.669Z,9.25
2023-02-14T11:25:55.636Z,7.63
2023-02-14T11:28:22.460Z,9.13
2023-02-14T11:30:50.861Z,9.55
2023-02-14T11:33:35.588Z,9.18
2023-02-14T11:36:04.254Z,10.13
2023-02-14T11:38:38.146Z,10.18
2023-02-14T11:41:12.116Z,11.27
2023-02-14T11:43:40.794Z,10.83
2023-02-14T11:46:44.331Z,11.50
2023-02-14T11:49:34.565Z,12.15
2023-02-14T11:52:14.703Z,11.52
2023-02-14T11:54:42.225Z,12.05
2023-02-14T11:57:13.612Z,12.07
2023-02-14T11:59:48.372Z,13.43
2023-02-14T12:04:55.365Z,13.20
2023-02-14T12:07:27.114Z,13.02
2023-02-14T12:10:12.126Z,14.13
2023-02-14T12:12:55.626Z,14.82
2023-02-14T12:15:27.104Z,13.90
2023-02-14T12:18:09.992Z,14.30
2023-02-14T12:20:42.922Z,14.35
2023-02-14T12:23:29.347Z,14.68
2023-02-14T12:26:01.223Z,14.80
2023-02-14T12:28:38.475Z,15.35
2023-02-14T12:31:12.687Z,15.88
2023-02-14T12:33:40.511Z,16.00
2023-02-14T12:36:29.185Z,15.50
2023-02-14T12:38:58.980Z,14.45
2023-02-14T12:41:44.341Z,14.65
2023-02-14T12:44:29.034Z,15.27
2023-02-14T12:47:04.833Z,15.40
2023-02-14T12:49:37.609Z,15.35
2023-02-14T12:52:04.315Z,15.20
2023-02-14T12:54:55.436Z,15.50
2023-02-14T12:57:35.070Z,15.88
2023-02-14T13:00:14.907Z,14.90
2023-02-14T13:02:48.408Z,14.73
2023-02-14T13:05:21.744Z,14.65
2023-02-14T13:08:03.799Z,14.65
2023-02-14T13:10:49.201Z,15.18
2023-02-14T13:13:21.593Z,15.50
2023-02-14T13:16:22.130Z,15.77
2023-02-14T13:19:00.107Z,14.75
2023-02-14T13:21:29.825Z,14.77
2023-02-14T13:24:06.758Z,15.18
2023-02-14T13:26:36.340Z,16.23
2023-02-14T13:29:05.589Z,15.38
2023-02-14T13:31:32.956Z,15.25
2023-02-14T13:34:08.995Z,16.00
2023-02-14T13:36:37.412Z,15.68
2023-02-14T13:39:04.774Z,14.68
2023-02-14T13:41:31.820Z,16.50
2023-02-14T13:44:02.608Z,15.93
2023-02-14T13:46:32.581Z,16.25
2023-02-14T13:49:20.093Z,16.10
2023-02-14T13:51:52.272Z,15.70
2023-02-14T13:54:35.648Z,16.23
2023-02-14T13:57:04.592Z,17.10
2023-02-14T13:59:32.348Z,16.55
2023-02-14T14:02:29.835Z,16.40
2023-02-14T14:04:56.803Z,16.35
2023-02-14T14:07:30.723Z,16.88
2023-02-14T14:09:59.973Z,16.33
2023-02-14T14:12:26.627Z,16.27
2023-02-14T14:15:13.914Z,16.30
2023-02-14T14:18:12.754Z,16.42
2023-02-14T14:20:46.143Z,15.98
2023-02-14T14:23:33.526Z,17.40
2023-02-14T14:26:01.109Z,18.10
2023-02-14T14:28:31.424Z,16.38
2023-02-14T14:30:58.409Z,16.67
2023-02-14T14:33:29.472Z,15.90
2023-02-14T14:36:02.775Z,17.65
2023-02-14T14:38:30.723Z,16.85
2023-02-14T14:40:57.921Z,17.73
2023-02-14T14:43:29.601Z,17.20
2023-02-14T14:45:57.598Z,17.27
2023-02-14T14:48:49.542Z,16.90
2023-02-14T14:51:22.802Z,17.33
2023-02-14T14:54:00.391Z,17.13
2023-02-14T14:56:32.848Z,17.13
2023-02-14T14:59:17.275Z,17.75
2023-02-14T15:01:44.735Z,17.27
2023-02-14T15:04:14.461Z,16.48
2023-02-14T15:06:41.571Z,17.23
2023-02-14T15:09:18.455Z,16.55
2023-02-14T15:12:05.546Z,17.55
2023-02-14T15:14:36.037Z,17.25
2023-02-14T15:17:11.589Z,17.95
2023-02-14T15:19:41.916Z,18.40
2023-02-14T15:22:22.273Z,17.42
2023-02-14T15:24:49.212Z,17.40
2023-02-14T15:27:18.210Z,17.20
2023-02-14T15:30:01.307Z,16.17
2023-02-14T15:32:31.679Z,17.40
2023-02-14T15:35:01.042Z,17.08
2023-02-14T15:37:28.009Z,16.77
2023-02-14T15:39:55.946Z,16.60
2023-02-14T15:42:32.807Z,16.90
2023-02-14T15:45:27.685Z,16.70
2023-02-14T15:48:02.814Z,16.17
2023-02-14T15:50:31.288Z,15.90
2023-02-14T15:53:04.483Z,16.27
2023-02-14T15:55:32.392Z,15.25
2023-02-14T15:58:21.339Z,15.00
2023-02-14T16:00:48.954Z,15.13
2023-02-14T16:03:28.468Z,14.93
2023-02-14T16:05:55.245Z,15.23
2023-02-14T16:08:33.096Z,13.88
2023-02-14T16:11:13.593Z,14.57
2023-02-14T16:13:45.615Z,12.43
2023-02-14T16:16:14.139Z,12.60
2023-02-14T16:18:47.464Z,13.00
2023-02-14T16:21:20.142Z,16.20
2023-02-14T16:24:08.160Z,15.38
2023-02-14T16:26:38.107Z,15.15
2023-02-14T16:29:06.216Z,16.15
2023-02-14T16:31:33.742Z,18.35
2023-02-14T16:34:00.775Z,14.05
2023-02-14T16:36:32.150Z,14.20
2023-02-14T16:38:59.368Z,14.77
2023-02-14T16:41:27.720Z,15.05
2023-02-14T16:43:55.348Z,13.32
2023-02-14T16:46:24.070Z,13.65
2023-02-14T16:48:52.683Z,14.68
2023-02-14T16:51:21.853Z,13.35
2023-02-14T16:53:49.226Z,13.32
2023-02-14T16:56:21.382Z,12.77
2023-02-14T16:58:48.390Z,16.88
2023-02-14T17:01:15.321Z,11.95
2023-02-14T17:03:42.782Z,10.13
2023-02-14T17:06:17.454Z,10.80
2023-02-14T17:11:10.962Z,18.73
2023-02-14T17:13:40.829Z,16.95
2023-02-14T17:16:08.986Z,17.08
2023-02-14T17:18:36.348Z,15.18
2023-02-14T17:21:05.023Z,15.63
2023-02-14T17:23:31.783Z,15.07
2023-02-14T17:25:58.526Z,14.30
2023-02-14T17:28:26.535Z,14.18
2023-02-14T17:30:54.184Z,13.93
2023-02-14T17:33:21.330Z,14.23
2023-02-14T17:35:48.472Z,14.43
2023-02-14T17:38:15.254Z,13.88
2023-02-14T17:40:42.060Z,19.38
2023-02-14T17:43:08.816Z,18.65
2023-02-14T17:45:35.664Z,16.42
2023-02-14T17:48:02.684Z,14.88
2023-02-14T17:50:29.504Z,14.25
2023-02-14T17:52:56.739Z,13.13
2023-02-14T17:55:24.011Z,14.00
2023-02-14T17:57:52.608Z,13.80
2023-02-14T18:00:21.410Z,13.80
2023-02-14T18:02:48.924Z,13.35
2023-02-14T18:05:16.848Z,13.68
2023-02-14T18:07:43.816Z,13.73
2023-02-14T18:10:10.912Z,12.88
2023-02-14T18:12:37.922Z,11.48
2023-02-14T18:15:05.701Z,11.70
2023-02-14T18:17:32.616Z,11.93
2023-02-14T18:19:59.328Z,11.18
2023-02-14T18:22:28.275Z,11.93
2023-02-14T18:24:58.617Z,11.15
2023-02-14T18:27:26.058Z,9.75
2023-02-14T18:29:52.888Z,9.20
2023-02-14T18:32:19.675Z,9.05
2023-02-14T18:34:46.417Z,8.07
2023-02-14T18:37:13.794Z,8.45
2023-02-14T18:39:40.493Z,8.70
2023-02-14T18:42:07.274Z,7.93
2023-02-14T18:44:34.172Z,8.85
2023-02-14T18:47:01.837Z,7.93
2023-02-14T18:49:28.743Z,7.85
2023-02-14T18:51:57.280Z,7.88
2023-02-14T18:54:24.270Z,6.82
2023-02-14T18:56:50.967Z,7.25
2023-02-14T18:59:17.925Z,6.00
2023-02-14T19:01:45.691Z,6.05
2023-02-14T19:04:13.428Z,5.88
2023-02-14T19:06:41.690Z,6.03
2023-02-14T19:09:13.521Z,5.78
2023-02-14T19:11:40.667Z,6.18
2023-02-14T19:14:10.866Z,6.22
2023-02-14T19:16:50.494Z,5.85
2023-02-14T19:19:18.228Z,6.45
2023-02-14T19:21:45.361Z,6.68
2023-02-14T19:24:12.442Z,7.50
2023-02-14T19:26:42.403Z,8.32
2023-02-14T19:29:14.809Z,8.65
2023-02-14T19:31:48.263Z,8.50
2023-02-14T19:34:16.305Z,9.07
2023-02-14T19:36:43.037Z,10.30
2023-02-14T19:39:11.288Z,10.30
2023-02-14T19:41:38.062Z,10.70
2023-02-14T19:44:06.657Z,11.30
2023-02-14T19:46:34.065Z,11.07
2023-02-14T19:49:01.311Z,10.77
2023-02-14T19:51:33.948Z,11.75
2023-02-14T19:54:03.329Z,11.70
2023-02-14T19:56:32.186Z,13.02
2023-02-14T19:58:59.282Z,13.35
2023-02-14T20:01:26.018Z,13.35
2023-02-14T20:03:53.482Z,13.15
2023-02-14T20:06:21.465Z,12.35
2023-02-14T20:08:48.261Z,12.18
2023-02-14T20:11:36.458Z,12.50
2023-02-14T20:14:03.935Z,12.38
2023-02-14T20:16:32.124Z,12.00
2023-02-14T20:19:01.345Z,11.27
2023-02-14T20:21:28.478Z,11.52
2023-02-14T20:24:00.902Z,11.18
2023-02-14T20:26:29.083Z,11.57
2023-02-14T20:28:57.860Z,10.98
2023-02-14T20:31:24.680Z,11.05
2023-02-14T20:33:52.849Z,11.05
2023-02-14T20:36:20.293Z,12.32
2023-02-14T20:38:47.300Z,10.82
2023-02-14T20:41:16.397Z,11.55
2023-02-14T20:43:43.077Z,11.85
2023-02-14T20:46:09.721Z,11.77
2023-02-14T20:48:36.702Z,11.57
2023-02-14T20:51:15.218Z,11.95
2023-02-14T20:53:43.244Z,11.82
2023-02-14T20:56:10.397Z,11.38
2023-02-14T20:58:38.515Z,11.02
2023-02-14T21:01:17.074Z,11.13
2023-02-14T21:03:46.827Z,10.13
2023-02-14T21:06:15.147Z,10.23
2023-02-14T21:08:42.782Z,9.77
2023-02-14T21:11:11.555Z,9.98
2023-02-14T21:13:38.699Z,10.60
2023-02-14T21:16:08.346Z,10.65
2023-02-14T21:18:37.619Z,10.18
2023-02-14T21:21:11.472Z,10.10
2023-02-14T21:23:38.238Z,9.27
2023-02-14T21:26:05.385Z,10.13
2023-02-14T21:28:32.557Z,10.38
2023-02-14T21:31:08.208Z,9.60
2023-02-14T21:33:35.469Z,9.70
2023-02-14T21:36:13.831Z,9.57
2023-02-14T21:38:40.701Z,9.25
2023-02-14T21:41:13.827Z,8.85
2023-02-14T21:43:42.827Z,9.65
2023-02-14T21:46:15.533Z,8.82
2023-02-14T21:49:01.363Z,8.50
2023-02-14T21:51:28.662Z,8.88
2023-02-14T21:53:56.159Z,8.07
2023-02-14T21:56:23.813Z,7.10
2023-02-14T21:58:51.749Z,5.70
2023-02-14T22:01:21.110Z,5.97
2023-02-14T22:03:48.215Z,5.15
2023-02-14T22:06:15.014Z,4.65
2023-02-14T22:08:42.558Z,4.88
2023-02-14T22:11:14.749Z,4.00
2023-02-14T22:13:41.582Z,3.38
2023-02-14T22:16:10.908Z,3.28
2023-02-14T22:18:37.999Z,3.00
2023-02-14T22:21:11.890Z,3.00
2023-02-14T22:23:39.100Z,3.70
2023-02-14T22:26:15.264Z,2.95
2023-02-14T22:28:43.496Z,2.72
2023-02-14T22:31:10.725Z,2.42
2023-02-14T22:33:37.984Z,2.63
2023-02-14T22:36:06.010Z,2.20
2023-02-14T22:38:33.349Z,1.75
2023-02-14T22:41:14.490Z,1.63
2023-02-14T22:43:41.925Z,1.83
2023-02-14T22:46:14.065Z,1.40
2023-02-14T22:48:41.335Z,1.20
2023-02-14T22:51:33.331Z,1.40
2023-02-14T22:54:14.924Z,1.20
2023-02-14T22:56:44.253Z,1.10
2023-02-14T22:59:17.858Z,0.90
2023-02-14T23:01:46.132Z,0.80
2023-02-14T23:04:12.887Z,0.70
2023-02-14T23:06:39.633Z,0.70
2023-02-14T23:09:08.031Z,0.60
2023-02-14T23:11:36.798Z,0.40
2023-02-14T23:14:22.366Z,2.55
2023-02-14T23:17:07.887Z,0.60
2023-02-14T23:19:54.504Z,0.60
2023-02-14T23:22:27.349Z,0.40
2023-02-14T23:24:59.718Z,0.50
2023-02-14T23:27:32.010Z,0.43
2023-02-14T23:29:59.247Z,0.68
2023-02-14T23:32:26.440Z,0.80
2023-02-14T23:34:53.263Z,0.70
2023-02-14T23:37:20.265Z,1.00
2023-02-14T23:39:47.033Z,0.95
2023-02-14T23:42:14.879Z,1.05
2023-02-14T23:44:43.399Z,0.73
2023-02-14T23:47:11.102Z,0.85
2023-02-14T23:49:39.522Z,0.80
2023-02-14T23:52:08.198Z,1.27
2023-02-14T23:54:34.928Z,0.60
2023-02-14T23:57:02.152Z,0.90
2023-02-14T23:59:29.104Z,0.90
